VEGT/GAU METAR and TAF weather

Enter ICAO airport designator
Station Type Date Time Source
VEGT METAR 2020/07/06 19:00 UTC NOAA

VEGT 061900Z 00000KT 2500 BR FEW010 SCT018 FEW025CB BKN100 28/28 Q1003 NOSIG


Station Type Date Time Source
VEGT Decoded METAR 2020/07/06 19:00 UTC NOAA

Gauhati, India (VEGT) 26-06N 091-35E 54M
Jul 06, 2020 - 03:00 PM EDT / 2020.07.06 1900 UTC
Wind: Calm:0
Visibility: 1 mile(s):0
Sky conditions: mostly cloudy
Weather: mist; Cumulonimbus clouds observed
Temperature: 82 F (28 C)
Dew Point: 82 F (28 C)
Relative Humidity: 100%
Pressure (altimeter): 29.62 in. Hg (1003 hPa)
ob: VEGT 061900Z 00000KT 2500 BR FEW010 SCT018 FEW025CB BKN100 28/28 Q1003 NOSIG
cycle: 19

Station Type Date Time Source
VEGT TAF 2016/03/24 00:45 UTC NOAA

TAF VEGT 242300Z 2500/2606 00000KT 2000 BR FEW020
BECMG 2503/2506 05008KT 4000 HZ
BECMG 2506/2509 5000 HZ
BECMG 2512/2514 00000KT 4000 HZ FEW020 SCT100
BECMG 2515/2518 2500 HZ
BECMG 2603/2606 05008KT 4000 HZ FEW020=

Example: see airport list